createdAt,value
2022-08-04T00:02:50.631Z,19.35
2022-08-04T00:05:42.039Z,19.32
2022-08-04T00:08:47.390Z,19.30
2022-08-04T00:11:21.912Z,19.27
2022-08-04T00:14:03.225Z,19.25
2022-08-04T00:16:43.494Z,19.22
2022-08-04T00:19:42.348Z,19.21
2022-08-04T00:22:13.764Z,19.20
2022-08-04T00:24:42.852Z,19.19
2022-08-04T00:27:13.156Z,19.17
2022-08-04T00:29:42.319Z,19.16
2022-08-04T00:32:12.953Z,19.13
2022-08-04T00:34:42.048Z,19.12
2022-08-04T00:37:11.062Z,19.09
2022-08-04T00:39:41.055Z,19.06
2022-08-04T00:42:27.975Z,19.02
2022-08-04T00:45:15.506Z,18.97
2022-08-04T00:48:08.154Z,18.91
2022-08-04T00:50:46.953Z,18.85
2022-08-04T00:53:18.546Z,18.81
2022-08-04T00:56:18.350Z,18.79
2022-08-04T00:59:12.125Z,18.77
2022-08-04T01:02:00.067Z,18.74
2022-08-04T01:05:15.959Z,18.75
2022-08-04T01:07:56.561Z,18.76
2022-08-04T01:10:52.307Z,18.76
2022-08-04T01:13:41.311Z,18.76
2022-08-04T01:16:11.740Z,18.75
2022-08-04T01:18:55.923Z,18.73
2022-08-04T01:21:30.606Z,18.68
2022-08-04T01:23:59.313Z,18.63
2022-08-04T01:27:07.006Z,18.52
2022-08-04T01:29:47.359Z,18.42
2022-08-04T01:32:28.911Z,18.34
2022-08-04T01:35:46.649Z,18.25
2022-08-04T01:38:24.365Z,18.19
2022-08-04T01:40:56.462Z,18.17
2022-08-04T01:43:28.014Z,18.15
2022-08-04T01:46:02.337Z,18.13
2022-08-04T01:48:31.701Z,18.07
2022-08-04T01:51:06.249Z,18.02
2022-08-04T01:53:37.234Z,17.97
2022-08-04T01:56:08.654Z,17.91
2022-08-04T01:58:38.938Z,17.88
2022-08-04T02:01:10.534Z,17.85
2022-08-04T02:04:21.273Z,17.82
2022-08-04T02:06:38.114Z,17.77
2022-08-04T02:09:53.684Z,17.72
2022-08-04T02:12:35.806Z,17.65
2022-08-04T02:15:28.763Z,17.60
2022-08-04T02:18:38.306Z,17.54
2022-08-04T02:21:07.875Z,17.48
2022-08-04T02:23:37.679Z,17.46
2022-08-04T02:26:22.288Z,17.44
2022-08-04T02:29:16.712Z,17.44
2022-08-04T02:31:45.317Z,17.43
2022-08-04T02:34:30.439Z,17.41
2022-08-04T02:37:00.890Z,17.40
2022-08-04T02:39:48.406Z,17.41
2022-08-04T02:42:20.151Z,17.42
2022-08-04T02:44:50.906Z,17.44
2022-08-04T02:47:22.669Z,17.46
2022-08-04T02:49:52.965Z,17.50
2022-08-04T02:52:24.276Z,17.52
2022-08-04T02:54:56.388Z,17.54
2022-08-04T02:57:30.257Z,17.57
2022-08-04T03:00:20.183Z,17.60
2022-08-04T03:02:48.936Z,17.63
2022-08-04T03:05:20.469Z,17.66
2022-08-04T03:08:00.324Z,17.67
2022-08-04T03:10:53.022Z,17.66
2022-08-04T03:13:37.488Z,17.63
2022-08-04T03:16:21.635Z,17.60
2022-08-04T03:19:29.126Z,17.54
2022-08-04T03:22:27.100Z,17.47
2022-08-04T03:25:17.398Z,17.37
2022-08-04T03:28:17.192Z,17.26
2022-08-04T03:31:19.808Z,17.17
2022-08-04T03:34:22.581Z,17.10
2022-08-04T03:37:41.027Z,17.07
2022-08-04T03:40:43.349Z,17.06
2022-08-04T03:43:58.503Z,17.08
2022-08-04T03:46:34.552Z,17.14
2022-08-04T03:49:28.221Z,17.21
2022-08-04T03:52:40.436Z,17.31
2022-08-04T03:55:27.545Z,17.44
2022-08-04T03:58:11.492Z,17.56
2022-08-04T04:01:06.802Z,17.66
2022-08-04T04:03:42.764Z,17.77
2022-08-04T04:06:36.433Z,17.85
2022-08-04T04:09:22.118Z,17.94
2022-08-04T04:12:10.263Z,18.04
2022-08-04T04:14:51.444Z,18.15
2022-08-04T04:17:47.782Z,18.30
2022-08-04T04:20:33.363Z,18.46
2022-08-04T04:23:39.836Z,18.62
2022-08-04T04:26:20.604Z,18.80
2022-08-04T04:29:03.634Z,18.97
2022-08-04T04:31:49.521Z,19.14
2022-08-04T04:34:47.109Z,19.32
2022-08-04T04:37:48.618Z,19.55
2022-08-04T04:40:45.913Z,19.79
2022-08-04T04:43:51.106Z,20.05
2022-08-04T04:46:43.999Z,20.30
2022-08-04T04:49:29.274Z,20.53
2022-08-04T04:52:14.041Z,20.74
2022-08-04T04:55:08.076Z,20.95
2022-08-04T04:57:53.061Z,21.17
2022-08-04T05:00:26.900Z,21.40
2022-08-04T05:03:23.953Z,21.61
2022-08-04T05:06:17.725Z,21.85
2022-08-04T05:09:26.277Z,22.06
2022-08-04T05:14:31.346Z,22.30
2022-08-04T05:15:31.823Z,22.55
2022-08-04T05:18:04.541Z,22.77
2022-08-04T05:20:42.408Z,22.98
2022-08-04T05:23:18.815Z,23.21
2022-08-04T05:26:00.502Z,23.41
2022-08-04T05:28:54.141Z,23.63
2022-08-04T05:31:32.863Z,23.92
2022-08-04T05:34:08.622Z,24.17
2022-08-04T05:36:50.147Z,24.39
2022-08-04T05:39:32.316Z,24.63
2022-08-04T05:42:05.101Z,24.89
2022-08-04T05:44:37.335Z,25.13
2022-08-04T05:47:07.540Z,25.38
2022-08-04T05:49:38.919Z,25.59
2022-08-04T05:52:10.493Z,25.78
2022-08-04T05:54:40.507Z,26.00
2022-08-04T05:57:11.826Z,26.23
2022-08-04T05:59:42.572Z,26.47
2022-08-04T06:02:12.433Z,26.72
2022-08-04T06:04:43.454Z,26.97
2022-08-04T06:07:13.392Z,27.21
2022-08-04T06:09:42.672Z,27.43
2022-08-04T06:12:37.075Z,27.63
2022-08-04T06:15:08.767Z,27.92
2022-08-04T06:19:57.902Z,28.14
2022-08-04T06:20:34.611Z,28.32
2022-08-04T06:23:11.134Z,28.46
2022-08-04T06:25:46.075Z,28.62
2022-08-04T06:28:16.756Z,28.77
2022-08-04T06:30:48.310Z,28.93
2022-08-04T06:33:27.187Z,29.10
2022-08-04T06:35:58.057Z,29.25
2022-08-04T06:38:29.081Z,29.40
2022-08-04T06:40:59.800Z,29.56
2022-08-04T06:43:30.124Z,29.76
2022-08-04T06:46:04.779Z,29.94
2022-08-04T06:48:33.905Z,30.13
2022-08-04T06:51:30.428Z,30.27
2022-08-04T06:53:53.143Z,30.33
2022-08-04T06:56:24.269Z,30.39
2022-08-04T06:58:56.656Z,30.47
2022-08-04T07:01:27.133Z,30.60
2022-08-04T07:03:56.596Z,30.76
2022-08-04T07:06:26.205Z,30.90
2022-08-04T07:08:56.739Z,31.03
2022-08-04T07:11:26.808Z,31.12
2022-08-04T07:13:57.896Z,31.20
2022-08-04T07:16:30.846Z,31.29
2022-08-04T07:19:09.779Z,31.34
2022-08-04T07:21:40.444Z,31.40
2022-08-04T07:24:33.976Z,31.48
2022-08-04T07:27:04.289Z,31.65
2022-08-04T07:29:36.729Z,31.77
2022-08-04T07:32:06.575Z,31.88
2022-08-04T07:34:37.906Z,31.96
2022-08-04T07:37:07.594Z,31.98
2022-08-04T07:39:47.876Z,32.05
2022-08-04T07:42:21.688Z,32.21
2022-08-04T07:44:50.652Z,32.38
2022-08-04T07:47:25.111Z,32.56
2022-08-04T07:49:57.995Z,32.67
2022-08-04T07:52:27.297Z,32.79
2022-08-04T07:54:56.830Z,32.95
2022-08-04T07:57:40.713Z,33.03
2022-08-04T08:00:14.590Z,33.08
2022-08-04T08:02:44.032Z,33.17
2022-08-04T08:05:15.428Z,33.18
2022-08-04T08:07:50.649Z,33.28
2022-08-04T08:10:25.284Z,33.35
2022-08-04T08:12:54.159Z,33.50
2022-08-04T08:15:23.616Z,33.70
2022-08-04T08:17:59.842Z,33.90
2022-08-04T08:20:33.733Z,34.07
2022-08-04T08:23:03.737Z,34.18
2022-08-04T08:25:33.626Z,34.25
2022-08-04T08:28:04.978Z,34.42
2022-08-04T08:30:35.022Z,34.53
2022-08-04T08:33:10.263Z,34.73
2022-08-04T08:35:57.383Z,34.87
2022-08-04T08:38:39.707Z,34.83
2022-08-04T08:41:31.317Z,34.88
2022-08-04T08:44:05.647Z,35.09
2022-08-04T08:46:50.958Z,35.35
2022-08-04T08:50:00.111Z,35.50
2022-08-04T08:53:10.008Z,35.61
2022-08-04T08:55:59.889Z,35.59
2022-08-04T08:59:04.013Z,35.57
2022-08-04T09:02:06.898Z,35.41
2022-08-04T09:04:47.854Z,35.34
2022-08-04T09:07:35.812Z,35.40
2022-08-04T09:10:33.102Z,35.55
2022-08-04T09:13:14.253Z,35.81
2022-08-04T09:16:06.557Z,35.88
2022-08-04T09:18:43.802Z,35.49
2022-08-04T09:21:26.392Z,35.40
2022-08-04T09:24:36.422Z,35.66
2022-08-04T09:27:17.224Z,35.85
2022-08-04T09:30:06.594Z,35.97
2022-08-04T09:33:02.527Z,36.22
2022-08-04T09:35:42.735Z,36.45
2022-08-04T09:38:41.985Z,36.61
2022-08-04T09:41:49.686Z,36.58
2022-08-04T09:44:50.409Z,36.37
2022-08-04T09:47:57.935Z,36.49
2022-08-04T09:50:39.769Z,36.50
2022-08-04T09:53:46.663Z,36.44
2022-08-04T09:56:39.420Z,36.34
2022-08-04T09:59:20.123Z,35.96
2022-08-04T10:01:58.852Z,35.12
2022-08-04T10:04:31.770Z,35.07
2022-08-04T10:07:31.346Z,35.17
2022-08-04T10:10:32.701Z,35.43
2022-08-04T10:13:20.127Z,35.72
2022-08-04T10:16:16.259Z,35.81
2022-08-04T10:19:15.666Z,36.01
2022-08-04T10:23:09.539Z,36.32
2022-08-04T10:26:07.101Z,36.32
2022-08-04T10:28:31.198Z,36.30
2022-08-04T10:31:03.672Z,36.23
2022-08-04T10:33:50.261Z,36.35
2022-08-04T10:36:24.358Z,36.60
2022-08-04T10:39:04.222Z,36.69
2022-08-04T10:41:40.614Z,36.91
2022-08-04T10:44:42.056Z,36.85
2022-08-04T10:47:22.963Z,37.07
2022-08-04T10:49:55.116Z,37.33
2022-08-04T10:52:27.594Z,37.43
2022-08-04T10:55:22.036Z,37.37
2022-08-04T10:57:58.653Z,37.19
2022-08-04T11:00:28.991Z,37.35
2022-08-04T11:03:16.495Z,37.59
2022-08-04T11:05:50.221Z,37.90
2022-08-04T11:08:25.518Z,38.07
2022-08-04T11:11:02.992Z,38.20
2022-08-04T11:13:46.774Z,38.30
2022-08-04T11:16:25.440Z,38.44
2022-08-04T11:19:44.695Z,38.63
2022-08-04T11:22:23.822Z,38.76
2022-08-04T11:25:19.746Z,38.68
2022-08-04T11:28:00.616Z,38.64
2022-08-04T11:30:41.697Z,38.58
2022-08-04T11:33:27.897Z,38.53
2022-08-04T11:36:26.153Z,38.23
2022-08-04T11:39:29.142Z,38.05
2022-08-04T11:42:09.122Z,37.96
2022-08-04T11:45:07.363Z,38.07
2022-08-04T11:47:41.931Z,38.46
2022-08-04T11:50:20.959Z,38.86
2022-08-04T11:52:53.581Z,39.32
2022-08-04T11:55:26.172Z,39.54
2022-08-04T11:57:55.656Z,39.62
2022-08-04T12:00:28.417Z,39.59
2022-08-04T12:03:37.493Z,39.65
2022-08-04T12:06:21.382Z,39.95
2022-08-04T12:09:17.515Z,40.19
2022-08-04T12:12:01.398Z,40.41
2022-08-04T12:14:58.427Z,40.53
2022-08-04T12:17:52.982Z,40.57
2022-08-04T12:20:38.170Z,40.32
2022-08-04T12:23:18.056Z,40.03
2022-08-04T12:25:52.964Z,40.07
2022-08-04T12:28:59.694Z,40.06
2022-08-04T12:31:30.270Z,39.85
2022-08-04T12:34:10.943Z,39.71
2022-08-04T12:36:56.324Z,39.63
2022-08-04T12:39:27.862Z,39.54
2022-08-04T12:42:34.756Z,39.38
2022-08-04T12:45:11.845Z,39.59
2022-08-04T12:47:42.188Z,39.78
2022-08-04T12:50:14.800Z,39.77
2022-08-04T12:53:04.369Z,39.59
2022-08-04T12:55:35.774Z,39.90
2022-08-04T12:58:16.110Z,40.21
2022-08-04T13:00:53.626Z,40.23
2022-08-04T13:03:28.057Z,40.20
2022-08-04T13:05:57.178Z,40.19
2022-08-04T13:08:26.232Z,40.38
2022-08-04T13:10:59.158Z,40.66
2022-08-04T13:13:31.880Z,40.85
2022-08-04T13:16:07.706Z,40.92
2022-08-04T13:18:49.468Z,40.82
2022-08-04T13:22:01.723Z,40.45
2022-08-04T13:24:21.215Z,40.19
2022-08-04T13:27:21.093Z,40.10
2022-08-04T13:30:00.228Z,40.02
2022-08-04T13:32:34.591Z,40.13
2022-08-04T13:35:06.070Z,40.06
2022-08-04T13:37:39.780Z,39.99
2022-08-04T13:40:14.473Z,40.14
2022-08-04T13:42:48.420Z,40.31
2022-08-04T13:45:24.206Z,40.47
2022-08-04T13:48:15.779Z,40.36
2022-08-04T13:50:55.447Z,40.05
2022-08-04T13:53:27.887Z,39.69
2022-08-04T13:56:01.837Z,39.26
2022-08-04T13:58:40.571Z,38.93
2022-08-04T14:01:20.964Z,38.61
2022-08-04T14:04:16.248Z,38.58
2022-08-04T14:06:49.750Z,38.87
2022-08-04T14:09:35.118Z,38.97
2022-08-04T14:12:38.864Z,38.71
2022-08-04T14:14:58.088Z,38.38
2022-08-04T14:17:30.433Z,38.25
2022-08-04T14:20:02.351Z,38.19
2022-08-04T14:22:36.952Z,38.15
2022-08-04T14:25:15.086Z,38.02
2022-08-04T14:27:55.209Z,37.92
2022-08-04T14:30:33.807Z,37.74
2022-08-04T14:34:04.560Z,37.50
2022-08-04T14:36:01.761Z,37.31
2022-08-04T14:38:50.478Z,37.11
2022-08-04T14:41:27.602Z,36.87
2022-08-04T14:43:58.868Z,36.57
2022-08-04T14:46:36.033Z,36.26
2022-08-04T14:49:10.713Z,35.98
2022-08-04T14:51:42.355Z,35.73
2022-08-04T14:54:18.593Z,35.49
2022-08-04T14:56:58.345Z,35.29
2022-08-04T14:59:27.754Z,35.05
2022-08-04T15:02:00.539Z,34.85
2022-08-04T15:04:32.045Z,34.69
2022-08-04T15:07:04.475Z,34.49
2022-08-04T15:09:34.838Z,34.35
2022-08-04T15:12:04.861Z,34.18
2022-08-04T15:14:38.010Z,33.98
2022-08-04T15:17:12.469Z,33.81
2022-08-04T15:19:57.162Z,33.65
2022-08-04T15:22:26.262Z,33.51
2022-08-04T15:24:56.054Z,33.44
2022-08-04T15:27:29.102Z,33.34
2022-08-04T15:30:02.649Z,33.21
2022-08-04T15:32:34.703Z,33.14
2022-08-04T15:35:08.556Z,33.08
2022-08-04T15:37:47.027Z,33.04
2022-08-04T15:40:27.111Z,32.96
2022-08-04T15:43:08.854Z,32.90
2022-08-04T15:46:41.999Z,32.85
2022-08-04T15:48:44.446Z,32.74
2022-08-04T15:51:14.776Z,32.68
2022-08-04T15:54:02.769Z,32.61
2022-08-04T15:56:33.039Z,32.52
2022-08-04T15:59:01.623Z,32.42
2022-08-04T16:01:30.171Z,32.31
2022-08-04T16:04:01.659Z,32.22
2022-08-04T16:06:30.698Z,32.12
2022-08-04T16:09:02.068Z,32.02
2022-08-04T16:11:33.078Z,31.91
2022-08-04T16:14:02.145Z,31.78
2022-08-04T16:16:45.465Z,31.66
2022-08-04T16:19:35.432Z,31.52
2022-08-04T16:22:05.184Z,31.39
2022-08-04T16:24:41.723Z,31.27
2022-08-04T16:27:13.328Z,31.17
2022-08-04T16:29:47.382Z,31.06
2022-08-04T16:32:22.435Z,30.94
2022-08-04T16:35:05.642Z,30.85
2022-08-04T16:37:42.772Z,30.73
2022-08-04T16:40:36.435Z,30.63
2022-08-04T16:43:14.874Z,30.57
2022-08-04T16:45:46.718Z,30.54
2022-08-04T16:48:17.524Z,30.61
2022-08-04T16:50:57.692Z,30.86
2022-08-04T16:53:53.392Z,31.07
2022-08-04T16:56:35.550Z,31.02
2022-08-04T16:59:13.736Z,30.95
2022-08-04T17:01:48.062Z,30.92
2022-08-04T17:04:17.016Z,30.82
2022-08-04T17:06:49.744Z,30.68
2022-08-04T17:09:22.402Z,30.54
2022-08-04T17:11:53.866Z,30.40
2022-08-04T17:14:24.671Z,30.23
2022-08-04T17:16:54.528Z,30.09
2022-08-04T17:19:25.774Z,29.94
2022-08-04T17:22:06.076Z,29.80
2022-08-04T17:24:38.379Z,29.65
2022-08-04T17:28:09.125Z,29.49
2022-08-04T17:29:56.431Z,29.33
2022-08-04T17:32:26.005Z,29.19
2022-08-04T17:35:01.575Z,29.04
2022-08-04T17:37:39.801Z,28.88
2022-08-04T17:40:17.882Z,28.73
2022-08-04T17:42:47.966Z,28.58
2022-08-04T17:48:24.405Z,28.26
2022-08-04T17:50:53.863Z,28.10
2022-08-04T17:54:01.381Z,27.95
2022-08-04T17:56:51.463Z,27.76
2022-08-04T17:59:52.146Z,27.57
2022-08-04T18:02:12.889Z,27.40
2022-08-04T18:05:05.916Z,27.24
2022-08-04T18:08:38.343Z,27.04
2022-08-04T18:10:51.735Z,26.87
2022-08-04T18:13:26.667Z,26.67
2022-08-04T18:16:05.636Z,26.52
2022-08-04T18:18:35.301Z,26.36
2022-08-04T18:21:07.603Z,26.21
2022-08-04T18:23:43.425Z,26.07
2022-08-04T18:26:23.907Z,25.94
2022-08-04T18:28:52.787Z,25.82
2022-08-04T18:31:21.809Z,25.71
2022-08-04T18:33:59.054Z,25.59
2022-08-04T18:36:33.282Z,25.49
2022-08-04T18:39:12.517Z,25.38
2022-08-04T18:42:02.498Z,25.29
2022-08-04T18:44:52.385Z,25.18
2022-08-04T18:47:23.719Z,25.07
2022-08-04T18:51:01.774Z,24.98
2022-08-04T18:55:55.517Z,24.77
2022-08-04T18:58:27.216Z,24.66
2022-08-04T19:01:00.490Z,24.58
2022-08-04T19:03:31.531Z,24.50
2022-08-04T19:06:03.494Z,24.43
2022-08-04T19:08:41.934Z,24.37
2022-08-04T19:11:35.257Z,24.30
2022-08-04T19:14:05.294Z,24.23
2022-08-04T19:16:34.797Z,24.17
2022-08-04T19:19:05.961Z,24.12
2022-08-04T19:22:01.378Z,24.08
2022-08-04T19:24:31.106Z,24.05
2022-08-04T19:27:06.343Z,24.01
2022-08-04T19:29:41.227Z,23.98
2022-08-04T19:32:16.105Z,23.95
2022-08-04T19:34:47.272Z,23.93
2022-08-04T19:37:57.004Z,23.92
2022-08-04T19:40:10.328Z,23.89
2022-08-04T19:42:40.426Z,23.87
2022-08-04T19:45:15.560Z,23.84
2022-08-04T19:48:16.475Z,23.80
2022-08-04T19:50:34.996Z,23.77
2022-08-04T19:55:53.463Z,23.70
2022-08-04T19:58:26.322Z,23.66
2022-08-04T20:00:55.855Z,23.62
2022-08-04T20:04:10.530Z,23.57
2022-08-04T20:06:14.741Z,23.51
2022-08-04T20:08:48.301Z,23.46
2022-08-04T20:11:18.958Z,23.40
2022-08-04T20:13:54.788Z,23.34
2022-08-04T20:16:29.839Z,23.30
2022-08-04T20:21:55.574Z,23.21
2022-08-04T20:24:37.647Z,23.16
2022-08-04T20:27:15.407Z,23.11
2022-08-04T20:29:49.843Z,23.08
2022-08-04T20:32:22.151Z,23.05
2022-08-04T20:34:53.100Z,23.03
2022-08-04T20:37:24.080Z,23.01
2022-08-04T20:39:57.868Z,22.97
2022-08-04T20:42:33.839Z,22.93
2022-08-04T20:45:03.349Z,22.89
2022-08-04T20:47:35.513Z,22.84
2022-08-04T20:50:09.606Z,22.79
2022-08-04T20:52:40.043Z,22.75
2022-08-04T20:55:09.342Z,22.71
2022-08-04T20:57:48.561Z,22.67
2022-08-04T21:00:26.441Z,22.61
2022-08-04T21:02:59.903Z,22.56
2022-08-04T21:05:31.350Z,22.51
2022-08-04T21:08:00.450Z,22.47
2022-08-04T21:10:31.226Z,22.43
2022-08-04T21:12:59.974Z,22.39
2022-08-04T21:15:59.133Z,22.36
2022-08-04T21:18:17.666Z,22.32
2022-08-04T21:20:57.885Z,22.28
2022-08-04T21:23:26.847Z,22.24
2022-08-04T21:26:05.144Z,22.20
2022-08-04T21:28:40.020Z,22.15
2022-08-04T21:31:11.350Z,22.12
2022-08-04T21:33:52.234Z,22.08
2022-08-04T21:36:21.143Z,22.04
2022-08-04T21:38:51.411Z,22.03
2022-08-04T21:41:24.781Z,22.01
2022-08-04T21:43:56.531Z,21.99
2022-08-04T21:49:17.341Z,21.94
2022-08-04T21:54:37.245Z,21.87
2022-08-04T21:57:06.358Z,21.83
2022-08-04T21:59:35.130Z,21.79
2022-08-04T22:02:14.800Z,21.74
2022-08-04T22:04:44.594Z,21.70
2022-08-04T22:07:13.070Z,21.65
2022-08-04T22:10:02.427Z,21.60
2022-08-04T22:12:33.663Z,21.55
2022-08-04T22:15:23.011Z,21.49
2022-08-04T22:17:54.270Z,21.44
2022-08-04T22:20:27.963Z,21.40
2022-08-04T22:23:03.371Z,21.35
2022-08-04T22:25:37.855Z,21.31
2022-08-04T22:28:09.233Z,21.29
2022-08-04T22:30:38.842Z,21.26
2022-08-04T22:33:17.217Z,21.23
2022-08-04T22:35:49.260Z,21.21
2022-08-04T22:38:37.069Z,21.20
2022-08-04T22:41:13.219Z,21.18
2022-08-04T22:43:43.754Z,21.15
2022-08-04T22:46:24.930Z,21.13
2022-08-04T22:48:54.132Z,21.09
2022-08-04T22:51:23.849Z,21.05
2022-08-04T22:53:55.877Z,21.01
2022-08-04T22:56:38.707Z,20.95
2022-08-04T22:59:11.205Z,20.89
2022-08-04T23:02:01.306Z,20.82
2022-08-04T23:04:32.765Z,20.78
2022-08-04T23:07:05.245Z,20.75
2022-08-04T23:09:50.046Z,20.72
2022-08-04T23:12:25.899Z,20.71
2022-08-04T23:14:57.233Z,20.68
2022-08-04T23:17:28.768Z,20.65
2022-08-04T23:19:59.120Z,20.61
2022-08-04T23:22:37.438Z,20.56
2022-08-04T23:25:15.779Z,20.48
2022-08-04T23:27:51.420Z,20.44
2022-08-04T23:30:30.163Z,20.40
2022-08-04T23:32:59.498Z,20.37
2022-08-04T23:35:28.472Z,20.33
2022-08-04T23:37:59.980Z,20.29
2022-08-04T23:40:50.406Z,20.23
2022-08-04T23:43:19.722Z,20.18
2022-08-04T23:46:07.733Z,20.13
2022-08-04T23:48:38.875Z,20.10
2022-08-04T23:51:14.200Z,20.07
2022-08-04T23:54:02.099Z,20.05
2022-08-04T23:56:34.919Z,20.01
2022-08-04T23:59:04.671Z,20.00
